Nearby METAR Reports

 

KSFZ - Pawtucket, Rhode Island, USA
Distance from station: S 7mi, 11km
Updated: Wed, 29-Jan-2020 2:56pm EST
Clear
Clear
 Wind from N
Wind: N 14 mph , 22 km/h, Gust: 17 mph , 28 km/h
Temperature: 37°F , 3°C
Wind Chill: 28°F , -2°C
Dew Point: 10°F , -12°C
Humidity: 33%
Barometer: 29.98 inHg , 1015.2 hPa
Clouds: Clear
Visibility: 10 miles , 16 km
2020/01/29 19:56 KSFZ 291956Z AUTO 35012G15KT 10SM CLR 03/M12 A2998 RMK AO2 SLP103 T00331122
KPVD - Providence/Green, Rhode Island, USA
Distance from station: SSE 21mi, 34km
Updated: Wed, 29-Jan-2020 2:51pm EST
Clear
Clear
 Wind from N
Wind: N 8 mph , 13 km/h
Temperature: 41°F , 5°C
Wind Chill: 36°F , 2°C
Dew Point: 10°F , -12°C
Humidity: 28%
Barometer: 30.00 inHg , 1015.9 hPa
Clouds: Clear
Visibility: 10 miles , 16 km
2020/01/29 19:51 KPVD 291951Z 36007KT 10SM CLR 05/M12 A3000 RMK AO2 SLP159 T00501122
 
KORH - Worcester, Massachusetts, USA
Distance from station: NW 25mi, 40km
Updated: Wed, 29-Jan-2020 2:54pm EST
Clear
Clear
 Wind from NW
Wind: NW 9 mph , 15 km/h
Temperature: 36°F , 2°C
Wind Chill: 29°F , -2°C
Dew Point: 3°F , -16°C
Humidity: 25%
Barometer: 29.98 inHg , 1015.2 hPa
Clouds: Clear
Visibility: 10 miles , 16 km
2020/01/29 19:54 KORH 291954Z 31008KT 10SM CLR 02/M16 A2998 RMK AO2 SLP163 T00171156
KTAN - Taunton, Massachusetts, USA
Distance from station: ESE 28mi, 44km
Updated: Wed, 29-Jan-2020 2:52pm EST
Clear
Clear
 Wind from NNW
Wind: NNW 5 mph , 7 km/h
Temperature: 39°F , 4°C
Wind Chill: 35°F , 2°C
Dew Point: 10°F , -12°C
Humidity: 30%
Barometer: 29.99 inHg , 1015.6 hPa
Clouds: Clear
Visibility: 10 miles , 16 km
2020/01/29 19:52 KTAN 291952Z AUTO 33004KT 10SM CLR 04/M12 A2999 RMK AO2 SLP155 T00441117
 
KOQU - N. Kingston/Quon, Rhode Island, USA
Distance from station: S 29mi, 47km
Updated: Wed, 29-Jan-2020 2:50pm EST
Clear
Clear
 Wind from NE
Wind: NE 12 mph , 19 km/h
Temperature: 41°F , 5°C
Wind Chill: 34°F , 1°C
Dew Point: 12°F , -11°C
Humidity: 31%
Barometer: 29.99 inHg , 1015.6 hPa
Clouds: Clear
Visibility: 10 miles , 16 km
2020/01/29 19:50 KOQU 291950Z 04010KT 10SM SKC 05/M11 A2999
KBOS - Boston, Massachusetts, USA
Distance from station: NE 35mi, 57km
Updated: Wed, 29-Jan-2020 2:54pm EST
Clear
Clear
 Wind from NNW
Wind: NNW 16 mph , 26 km/h
Temperature: 43°F , 6°C
Wind Chill: 35°F , 2°C
Dew Point: 7°F , -14°C
Humidity: 22%
Barometer: 30.00 inHg , 1015.9 hPa
Clouds: Clear
Visibility: 10 miles , 16 km
2020/01/29 19:54 KBOS 291954Z 33014KT 10SM CLR 06/M14 A3000 RMK AO2 SLP159 T00561144
 
KUUU - Newport, Rhode Island, USA
Distance from station: SSE 36mi, 57km
Updated: Wed, 29-Jan-2020 2:53pm EST
Clear
Clear
 Wind from N
Wind: N 9 mph , 15 km/h
Temperature: 41°F , 5°C
Wind Chill: 35°F , 2°C
Dew Point: 12°F , -11°C
Humidity: 31%
Barometer: 29.99 inHg , 1015.6 hPa
Clouds: Clear
Visibility: 10 miles , 16 km
2020/01/29 19:53 KUUU 291953Z AUTO 36008KT 10SM CLR 05/M11 A2999 RMK AO2 SLP155 T00501111
KPYM - Plymouth, Massachusetts, USA
Distance from station: E 41mi, 66km
Updated: Wed, 29-Jan-2020 2:52pm EST
Clear
Clear
 Wind from calm
Wind: Calm
Temperature: 37°F , 3°C
Dew Point: 10°F , -12°C
Humidity: 33%
Barometer: 29.99 inHg , 1015.6 hPa
Clouds: Clear
Visibility: 10 miles , 16 km
2020/01/29 19:52 KPYM 291952Z AUTO 00000KT 10SM CLR 03/M12 A2999 RMK AO2 SLP157 T00331117
 
KWST - Westerly, Rhode Island, USA
Distance from station: SSW 48mi, 78km
Updated: Wed, 29-Jan-2020 2:53pm EST
Clear
Clear
 Wind from NNW
Wind: NNW 8 mph , 13 km/h
Temperature: 45°F , 7°C
Wind Chill: 41°F , 5°C
Dew Point: 10°F , -12°C
Humidity: 25%
Barometer: 30.01 inHg , 1016.3 hPa
Clouds: Clear
Visibility: 10 miles , 16 km
2020/01/29 19:53 KWST 291953Z AUTO 34007KT 10SM CLR 07/M12 A3001 RMK AO2 SLP161 T00671117